createdAt,value
2017-12-13T00:00:37.101Z,99.99
2017-12-13T00:01:46.989Z,99.99
2017-12-13T00:02:56.690Z,99.99
2017-12-13T00:04:06.655Z,99.99
2017-12-13T00:05:16.713Z,99.99
2017-12-13T00:06:26.134Z,99.99
2017-12-13T00:07:35.823Z,99.99
2017-12-13T00:08:45.501Z,99.99
2017-12-13T00:09:55.690Z,99.99
2017-12-13T00:11:05.378Z,99.99
2017-12-13T00:12:15.072Z,99.99
2017-12-13T00:13:25.014Z,99.99
2017-12-13T00:14:34.439Z,99.99
2017-12-13T00:15:44.122Z,99.99
2017-12-13T00:16:53.590Z,99.99
2017-12-13T00:18:03.543Z,99.99
2017-12-13T00:19:13.232Z,99.99
2017-12-13T00:20:22.666Z,99.99
2017-12-13T00:21:32.600Z,99.99
2017-12-13T00:22:41.782Z,99.99
2017-12-13T00:23:50.952Z,99.99
2017-12-13T00:25:00.907Z,99.99
2017-12-13T00:26:10.856Z,99.99
2017-12-13T00:27:20.543Z,99.99
2017-12-13T00:28:30.503Z,99.99
2017-12-13T00:29:40.450Z,99.99
2017-12-13T00:30:50.175Z,99.99
2017-12-13T00:31:59.689Z,99.99
2017-12-13T00:33:09.627Z,99.99
2017-12-13T00:34:19.334Z,99.99
2017-12-13T00:35:29.269Z,99.99
2017-12-13T00:36:38.948Z,99.99
2017-12-13T00:37:48.699Z,99.99
2017-12-13T00:38:58.662Z,99.99
2017-12-13T00:40:08.610Z,99.99
2017-12-13T00:41:18.330Z,99.99
2017-12-13T00:42:28.024Z,99.99
2017-12-13T00:43:37.697Z,99.99
2017-12-13T00:44:47.396Z,99.99
2017-12-13T00:45:56.831Z,99.99
2017-12-13T00:47:06.263Z,99.99
2017-12-13T00:48:15.697Z,99.99
2017-12-13T00:49:25.133Z,99.99
2017-12-13T00:50:34.802Z,99.99
2017-12-13T00:51:44.501Z,99.99
2017-12-13T00:52:53.924Z,99.99
2017-12-13T00:54:03.611Z,99.99
2017-12-13T00:55:13.549Z,99.99
2017-12-13T00:56:23.242Z,99.99
2017-12-13T00:57:33.449Z,99.99
2017-12-13T00:58:43.400Z,99.99
2017-12-13T00:59:53.347Z,99.99
2017-12-13T01:01:03.037Z,99.99
2017-12-13T01:02:12.721Z,99.99
2017-12-13T01:03:22.661Z,99.99
2017-12-13T01:04:32.607Z,99.99
2017-12-13T01:05:42.557Z,99.99
2017-12-13T01:06:52.242Z,99.99
2017-12-13T01:08:01.674Z,99.99
2017-12-13T01:09:11.614Z,99.99
2017-12-13T01:10:21.307Z,99.99
2017-12-13T01:11:30.990Z,99.99
2017-12-13T01:12:40.680Z,99.99
2017-12-13T01:13:50.621Z,99.99
2017-12-13T01:15:00.583Z,99.99
2017-12-13T01:16:10.295Z,99.99
2017-12-13T01:17:20.069Z,99.99
2017-12-13T01:18:30.018Z,99.99
2017-12-13T01:19:39.992Z,99.99
2017-12-13T01:20:49.423Z,99.99
2017-12-13T01:21:58.852Z,99.99
2017-12-13T01:23:08.794Z,99.99
2017-12-13T01:24:18.228Z,99.99
2017-12-13T01:25:27.939Z,99.99
2017-12-13T01:26:37.363Z,99.99
2017-12-13T01:27:47.311Z,99.99
2017-12-13T01:28:56.742Z,99.99
2017-12-13T01:30:06.439Z,99.99
2017-12-13T01:31:15.876Z,99.99
2017-12-13T01:32:25.829Z,99.99
2017-12-13T01:33:35.266Z,99.99
2017-12-13T01:34:45.207Z,99.99
2017-12-13T01:35:55.150Z,99.99
2017-12-13T01:37:05.094Z,99.99
2017-12-13T01:38:14.788Z,99.99
2017-12-13T01:39:24.210Z,99.99
2017-12-13T01:40:34.168Z,99.99
2017-12-13T01:41:44.112Z,99.99
2017-12-13T01:42:54.066Z,99.99
2017-12-13T01:44:04.028Z,99.99
2017-12-13T01:45:13.712Z,99.99
2017-12-13T01:46:23.656Z,99.99
2017-12-13T01:47:33.628Z,99.99
2017-12-13T01:48:43.314Z,99.99
2017-12-13T01:49:52.741Z,99.99
2017-12-13T01:51:02.426Z,99.99
2017-12-13T01:52:12.368Z,99.99
2017-12-13T01:53:22.308Z,99.99
2017-12-13T01:54:31.731Z,99.99
2017-12-13T01:55:41.423Z,99.99
2017-12-13T01:56:51.372Z,99.99
2017-12-13T01:58:01.309Z,99.99
2017-12-13T01:59:11.264Z,99.99
2017-12-13T02:00:20.944Z,99.99
2017-12-13T02:01:30.631Z,99.99
2017-12-13T02:02:40.320Z,99.99
2017-12-13T02:03:50.268Z,99.99
2017-12-13T02:04:59.951Z,99.99
2017-12-13T02:06:09.751Z,99.99
2017-12-13T02:07:19.700Z,99.99
2017-12-13T02:08:29.395Z,99.99
2017-12-13T02:09:39.087Z,99.99
2017-12-13T02:10:49.079Z,99.99
2017-12-13T02:11:58.496Z,99.99
2017-12-13T02:13:08.440Z,99.99
2017-12-13T02:14:17.874Z,99.99
2017-12-13T02:15:27.833Z,99.99
2017-12-13T02:16:37.004Z,99.99
2017-12-13T02:17:46.954Z,99.99
2017-12-13T02:18:56.896Z,99.99
2017-12-13T02:20:06.594Z,99.99
2017-12-13T02:21:16.051Z,99.99
2017-12-13T02:22:25.998Z,99.99
2017-12-13T02:23:35.680Z,99.99
2017-12-13T02:24:45.352Z,99.99
2017-12-13T02:25:55.032Z,99.99
2017-12-13T02:27:04.972Z,99.99
2017-12-13T02:28:14.651Z,99.99
2017-12-13T02:29:24.341Z,99.99
2017-12-13T02:30:34.023Z,99.99
2017-12-13T02:31:43.969Z,99.99
2017-12-13T02:32:53.649Z,99.99
2017-12-13T02:34:03.597Z,99.99
2017-12-13T02:35:13.281Z,99.99
2017-12-13T02:36:22.980Z,99.99
2017-12-13T02:37:33.191Z,99.99
2017-12-13T02:38:42.872Z,99.99
2017-12-13T02:39:52.559Z,99.99
2017-12-13T02:41:02.492Z,99.99
2017-12-13T02:42:12.191Z,99.99
2017-12-13T02:43:21.622Z,99.99
2017-12-13T02:44:31.306Z,99.99
2017-12-13T02:45:40.993Z,99.99
2017-12-13T02:46:50.956Z,99.99
2017-12-13T02:48:00.653Z,99.99
2017-12-13T02:49:10.092Z,99.99
2017-12-13T02:50:20.027Z,99.99
2017-12-13T02:51:29.454Z,99.99
2017-12-13T02:52:39.394Z,99.99
2017-12-13T02:53:48.839Z,99.99
2017-12-13T02:54:58.781Z,99.99
2017-12-13T02:56:08.737Z,99.99
2017-12-13T02:57:18.171Z,99.99
2017-12-13T02:58:27.628Z,99.99
2017-12-13T02:59:37.360Z,99.99
2017-12-13T03:00:47.062Z,99.99
2017-12-13T03:01:56.488Z,99.99
2017-12-13T03:03:05.919Z,99.99
2017-12-13T03:04:15.341Z,99.99
2017-12-13T03:05:25.028Z,99.99
2017-12-13T03:06:34.717Z,99.99
2017-12-13T03:07:44.399Z,99.99
2017-12-13T03:08:54.637Z,99.99
2017-12-13T03:10:04.336Z,99.99
2017-12-13T03:11:14.014Z,99.99
2017-12-13T03:12:23.953Z,99.99
2017-12-13T03:13:33.372Z,99.99
2017-12-13T03:14:43.339Z,99.99
2017-12-13T03:15:53.276Z,99.99
2017-12-13T03:17:03.221Z,99.99
2017-12-13T03:18:13.165Z,99.99
2017-12-13T03:19:23.103Z,99.99
2017-12-13T03:20:32.834Z,99.99
2017-12-13T03:21:42.533Z,99.99
2017-12-13T03:22:52.505Z,99.99
2017-12-13T03:24:01.729Z,99.99
2017-12-13T03:25:11.444Z,99.99
2017-12-13T03:26:21.378Z,99.99
2017-12-13T03:27:30.805Z,99.99
2017-12-13T03:28:40.249Z,99.99
2017-12-13T03:29:50.184Z,99.99
2017-12-13T03:30:59.610Z,99.99
2017-12-13T03:32:09.303Z,99.99
2017-12-13T03:33:19.236Z,99.99
2017-12-13T03:34:28.152Z,99.99
2017-12-13T03:35:38.161Z,99.99
2017-12-13T03:36:48.114Z,99.99
2017-12-13T03:37:57.804Z,99.99
2017-12-13T03:39:07.736Z,99.99
2017-12-13T03:40:17.670Z,99.99
2017-12-13T03:41:27.368Z,99.99
2017-12-13T03:42:37.051Z,99.99
2017-12-13T03:43:46.728Z,99.99
2017-12-13T03:44:56.141Z,99.99
2017-12-13T03:46:05.824Z,99.99
2017-12-13T03:47:15.762Z,99.99
2017-12-13T03:48:25.449Z,99.99
2017-12-13T03:49:34.876Z,99.99
2017-12-13T03:50:44.550Z,99.99
2017-12-13T03:51:54.255Z,99.99
2017-12-13T03:53:03.935Z,99.99
2017-12-13T03:54:13.621Z,99.99
2017-12-13T03:55:23.573Z,99.99
2017-12-13T03:56:33.518Z,99.99
2017-12-13T03:57:43.504Z,99.99
2017-12-13T03:58:52.937Z,99.99
2017-12-13T04:00:02.881Z,99.99
2017-12-13T04:01:13.086Z,99.99
2017-12-13T04:02:22.784Z,99.99
2017-12-13T04:03:32.461Z,99.99
2017-12-13T04:04:42.156Z,99.99
2017-12-13T04:05:51.843Z,99.99
2017-12-13T04:07:01.528Z,99.99
2017-12-13T04:08:11.502Z,99.99
2017-12-13T04:09:21.182Z,99.99
2017-12-13T04:10:31.118Z,99.99
2017-12-13T04:11:40.796Z,99.99
2017-12-13T04:12:50.482Z,99.99
2017-12-13T04:14:00.416Z,99.99
2017-12-13T04:15:10.102Z,99.99
2017-12-13T04:16:19.778Z,99.99
2017-12-13T04:17:29.205Z,99.99
2017-12-13T04:18:39.137Z,99.99
2017-12-13T04:19:49.070Z,99.99
2017-12-13T04:20:59.012Z,99.99
2017-12-13T04:22:08.443Z,99.99
2017-12-13T04:23:18.122Z,99.99
2017-12-13T04:24:28.075Z,99.99
2017-12-13T04:25:38.027Z,99.99
2017-12-13T04:26:47.724Z,99.99
2017-12-13T04:27:57.412Z,99.99
2017-12-13T04:29:07.350Z,99.99
2017-12-13T04:30:17.287Z,99.99
2017-12-13T04:31:26.704Z,99.99
2017-12-13T04:32:36.638Z,99.99
2017-12-13T04:33:46.320Z,99.99
2017-12-13T04:34:56.254Z,99.99
2017-12-13T04:36:05.950Z,99.99
2017-12-13T04:37:16.114Z,99.99
2017-12-13T04:38:25.804Z,99.99
2017-12-13T04:39:35.743Z,99.99
2017-12-13T04:40:45.674Z,99.99
2017-12-13T04:41:55.615Z,99.99
2017-12-13T04:43:05.555Z,99.99
2017-12-13T04:44:15.485Z,99.99
2017-12-13T04:45:24.916Z,99.99
2017-12-13T04:46:34.856Z,99.99
2017-12-13T04:47:44.536Z,99.99
2017-12-13T04:48:54.211Z,99.99
2017-12-13T04:50:03.637Z,99.99
2017-12-13T04:51:13.329Z,99.99
2017-12-13T04:52:23.281Z,99.99
2017-12-13T04:53:33.222Z,99.99
2017-12-13T04:54:42.912Z,99.99
2017-12-13T04:55:52.591Z,99.99
2017-12-13T04:57:02.591Z,99.99
2017-12-13T04:58:12.014Z,99.99
2017-12-13T04:59:21.995Z,99.99
2017-12-13T05:00:31.424Z,99.99
2017-12-13T05:01:42.191Z,99.99
2017-12-13T05:02:51.869Z,99.99
2017-12-13T05:04:01.320Z,99.99
2017-12-13T05:05:11.048Z,99.99
2017-12-13T05:06:20.730Z,99.99
2017-12-13T05:07:30.671Z,99.99
2017-12-13T05:08:40.344Z,99.99
2017-12-13T05:09:50.281Z,99.99
2017-12-13T05:10:59.969Z,99.99
2017-12-13T05:12:09.924Z,99.99
2017-12-13T05:13:19.610Z,99.99
2017-12-13T05:14:29.546Z,99.99
2017-12-13T05:15:39.222Z,99.99
2017-12-13T05:16:48.395Z,99.99
2017-12-13T05:17:58.334Z,99.99
2017-12-13T05:19:08.276Z,99.99
2017-12-13T05:20:17.944Z,99.99
2017-12-13T05:21:27.635Z,99.99
2017-12-13T05:22:37.570Z,99.99
2017-12-13T05:23:47.519Z,99.99
2017-12-13T05:24:56.745Z,99.99
2017-12-13T05:26:06.470Z,99.99
2017-12-13T05:27:16.178Z,99.99
2017-12-13T05:28:26.123Z,99.99
2017-12-13T05:29:36.100Z,99.99
2017-12-13T05:30:46.037Z,99.99
2017-12-13T05:31:55.977Z,99.99
2017-12-13T05:33:05.671Z,99.99
2017-12-13T05:34:15.620Z,99.99
2017-12-13T05:35:25.296Z,99.99
2017-12-13T05:36:35.250Z,99.99
2017-12-13T05:37:44.934Z,99.99
2017-12-13T05:38:54.612Z,99.99
2017-12-13T05:40:04.575Z,99.99
2017-12-13T05:41:14.515Z,99.99
2017-12-13T05:42:24.513Z,99.99
2017-12-13T05:43:34.488Z,99.99
2017-12-13T05:44:44.433Z,99.99
2017-12-13T05:45:53.869Z,99.99
2017-12-13T05:47:03.810Z,99.99
2017-12-13T05:48:13.754Z,99.99
2017-12-13T05:49:23.705Z,99.99
2017-12-13T05:50:33.641Z,99.99
2017-12-13T05:51:43.319Z,99.99
2017-12-13T05:52:53.265Z,99.99
2017-12-13T05:54:02.677Z,99.99
2017-12-13T05:55:12.111Z,99.99
2017-12-13T05:56:21.535Z,99.99
2017-12-13T05:57:31.467Z,99.99
2017-12-13T05:58:41.426Z,99.99
2017-12-13T05:59:50.590Z,99.99
2017-12-13T06:01:00.275Z,99.99
2017-12-13T06:02:10.012Z,99.99
2017-12-13T06:03:20.018Z,99.99
2017-12-13T06:04:29.465Z,99.99
2017-12-13T06:05:39.424Z,99.99
2017-12-13T06:06:49.367Z,99.99
2017-12-13T06:07:59.049Z,99.99
2017-12-13T06:09:08.467Z,99.99
2017-12-13T06:10:18.150Z,99.99
2017-12-13T06:11:28.092Z,99.99
2017-12-13T06:12:38.040Z,99.99
2017-12-13T06:13:47.982Z,99.99
2017-12-13T06:14:57.667Z,99.99
2017-12-13T06:16:07.351Z,99.99
2017-12-13T06:17:17.288Z,99.99
2017-12-13T06:18:27.229Z,99.99
2017-12-13T06:19:37.176Z,99.99
2017-12-13T06:20:47.129Z,99.99
2017-12-13T06:21:56.557Z,99.99
2017-12-13T06:23:06.245Z,99.99
2017-12-13T06:24:15.922Z,99.99
2017-12-13T06:25:25.638Z,99.99
2017-12-13T06:26:35.330Z,99.99
2017-12-13T06:27:45.019Z,99.99
2017-12-13T06:28:55.201Z,99.99
2017-12-13T06:30:04.890Z,99.99
2017-12-13T06:31:14.572Z,99.99
2017-12-13T06:32:24.259Z,99.99
2017-12-13T06:33:34.207Z,99.99
2017-12-13T06:34:43.631Z,99.99
2017-12-13T06:35:53.308Z,99.99
2017-12-13T06:37:02.994Z,99.99
2017-12-13T06:38:12.675Z,99.99
2017-12-13T06:39:22.627Z,99.99
2017-12-13T06:40:32.346Z,99.99
2017-12-13T06:41:41.546Z,99.99
2017-12-13T06:42:51.217Z,99.99
2017-12-13T06:44:01.161Z,99.99
2017-12-13T06:45:11.103Z,99.99
2017-12-13T06:46:20.020Z,99.99
2017-12-13T06:47:29.721Z,99.99
2017-12-13T06:48:39.459Z,99.99
2017-12-13T06:49:49.414Z,99.99
2017-12-13T06:50:58.851Z,99.99
2017-12-13T06:52:08.786Z,99.99
2017-12-13T06:53:18.491Z,99.99
2017-12-13T06:54:27.676Z,99.99
2017-12-13T06:55:37.622Z,99.99
2017-12-13T06:56:47.340Z,99.99
2017-12-13T06:57:56.755Z,99.99
2017-12-13T06:59:06.464Z,99.99
2017-12-13T07:00:16.426Z,99.99
2017-12-13T07:01:26.441Z,99.99
2017-12-13T07:02:36.122Z,99.99
2017-12-13T07:03:46.060Z,99.99
2017-12-13T07:04:55.739Z,99.99
2017-12-13T07:06:05.929Z,99.99
2017-12-13T07:07:15.614Z,99.99
2017-12-13T07:08:25.296Z,99.99
2017-12-13T07:09:35.272Z,99.99
2017-12-13T07:10:44.966Z,99.99
2017-12-13T07:11:54.431Z,99.99
2017-12-13T07:13:04.388Z,99.99
2017-12-13T07:14:14.344Z,99.99
2017-12-13T07:15:24.030Z,99.99
2017-12-13T07:16:33.458Z,99.99
2017-12-13T07:17:43.410Z,99.99
2017-12-13T07:18:53.347Z,99.99
2017-12-13T07:20:02.769Z,99.99
2017-12-13T07:21:12.198Z,99.99
2017-12-13T07:22:21.880Z,99.99
2017-12-13T07:23:31.877Z,99.99
2017-12-13T07:24:41.580Z,99.99
2017-12-13T07:25:51.267Z,99.99
2017-12-13T07:27:01.223Z,99.99
2017-12-13T07:28:10.909Z,99.99
2017-12-13T07:29:20.624Z,99.99
2017-12-13T07:30:30.584Z,99.99
2017-12-13T07:31:40.295Z,99.99
2017-12-13T07:32:49.760Z,99.99
2017-12-13T07:33:59.711Z,99.99
2017-12-13T07:35:09.667Z,99.99
2017-12-13T07:36:19.618Z,99.99
2017-12-13T07:37:29.310Z,99.99
2017-12-13T07:38:39.260Z,99.99
2017-12-13T07:39:48.955Z,99.99
2017-12-13T07:40:58.901Z,99.99
2017-12-13T07:42:08.607Z,99.99
2017-12-13T07:43:18.460Z,99.99
2017-12-13T07:44:28.426Z,99.99
2017-12-13T07:45:37.873Z,99.99
2017-12-13T07:46:47.568Z,99.99
2017-12-13T07:47:57.285Z,99.99
2017-12-13T07:49:07.282Z,99.99
2017-12-13T07:50:17.245Z,99.99
2017-12-13T07:51:26.948Z,99.99
2017-12-13T07:52:36.664Z,99.99
2017-12-13T07:53:46.085Z,99.99
2017-12-13T07:54:55.539Z,99.99
2017-12-13T07:56:05.227Z,99.99
2017-12-13T07:57:15.178Z,99.99
2017-12-13T07:58:25.165Z,99.99
2017-12-13T07:59:34.611Z,99.99
2017-12-13T08:00:44.311Z,99.99
2017-12-13T08:01:54.262Z,99.99
2017-12-13T08:03:04.223Z,99.99
2017-12-13T08:04:14.192Z,99.99
2017-12-13T08:05:24.163Z,99.99
2017-12-13T08:06:33.852Z,99.99
2017-12-13T08:07:43.313Z,99.99
2017-12-13T08:08:52.779Z,99.99
2017-12-13T08:10:02.760Z,99.99
2017-12-13T08:11:12.488Z,99.99
2017-12-13T08:12:22.171Z,99.99
2017-12-13T08:13:32.135Z,99.99
2017-12-13T08:14:42.095Z,99.99
2017-12-13T08:15:52.049Z,99.99
2017-12-13T08:17:02.003Z,99.99
2017-12-13T08:18:18.266Z,99.99
2017-12-13T08:19:27.727Z,99.99
2017-12-13T08:20:37.425Z,99.99
2017-12-13T08:21:47.401Z,99.99
2017-12-13T08:22:57.353Z,99.99
2017-12-13T08:24:06.797Z,99.99
2017-12-13T08:25:16.045Z,99.99
2017-12-13T08:26:25.736Z,99.99
2017-12-13T08:27:35.438Z,99.99
2017-12-13T08:28:44.875Z,99.99
2017-12-13T08:29:54.608Z,99.99
2017-12-13T08:31:04.312Z,99.99
2017-12-13T08:32:14.143Z,99.99
2017-12-13T08:33:24.090Z,99.99
2017-12-13T08:34:33.794Z,99.99
2017-12-13T08:35:43.471Z,99.99
2017-12-13T08:36:52.904Z,99.99
2017-12-13T08:38:02.602Z,99.99
2017-12-13T08:39:12.026Z,99.99
2017-12-13T08:40:21.965Z,99.99
2017-12-13T08:41:31.922Z,99.99
2017-12-13T08:42:41.877Z,99.99
2017-12-13T08:43:51.608Z,99.99
2017-12-13T08:45:01.328Z,99.99
2017-12-13T08:46:11.294Z,99.99
2017-12-13T08:47:21.513Z,99.99
2017-12-13T08:48:31.213Z,99.99
2017-12-13T08:49:40.918Z,99.99
2017-12-13T08:50:50.616Z,99.99
2017-12-13T08:52:00.070Z,99.99
2017-12-13T08:53:10.016Z,99.99
2017-12-13T08:54:19.467Z,99.99
2017-12-13T08:55:29.213Z,99.99
2017-12-13T08:56:38.647Z,99.99
2017-12-13T08:57:48.597Z,99.99
2017-12-13T08:58:58.558Z,99.99
2017-12-13T09:00:08.514Z,99.99
2017-12-13T09:01:18.471Z,99.99
2017-12-13T09:02:27.945Z,99.99
2017-12-13T09:03:37.659Z,99.99
2017-12-13T09:04:47.124Z,99.99
2017-12-13T09:05:57.089Z,99.99
2017-12-13T09:07:06.536Z,99.99
2017-12-13T09:08:16.250Z,99.99
2017-12-13T09:09:26.244Z,99.99
2017-12-13T09:10:35.961Z,99.99
2017-12-13T09:11:45.976Z,99.99
2017-12-13T09:12:56.147Z,99.99
2017-12-13T09:14:05.593Z,99.99
2017-12-13T09:15:15.275Z,99.99
2017-12-13T09:16:25.236Z,99.99
2017-12-13T09:17:35.236Z,99.99
2017-12-13T09:18:45.234Z,99.99
2017-12-13T09:19:54.685Z,99.99
2017-12-13T09:21:04.664Z,99.99
2017-12-13T09:22:14.125Z,99.99
2017-12-13T09:23:23.886Z,99.99
2017-12-13T09:24:33.588Z,99.99
2017-12-13T09:25:43.546Z,99.99
2017-12-13T09:26:53.807Z,99.99
2017-12-13T09:28:03.786Z,99.99
2017-12-13T09:29:12.980Z,99.99
2017-12-13T09:30:22.708Z,99.99
2017-12-13T09:31:32.759Z,99.99
2017-12-13T09:32:42.202Z,99.99
2017-12-13T09:33:52.164Z,99.99
2017-12-13T09:35:01.607Z,99.99
2017-12-13T09:36:11.565Z,99.99
2017-12-13T09:37:21.264Z,99.99
2017-12-13T09:38:30.971Z,99.99
2017-12-13T09:39:40.930Z,99.99
2017-12-13T09:40:50.929Z,99.99
2017-12-13T09:42:01.078Z,99.81
2017-12-13T09:43:10.516Z,99.99
2017-12-13T09:44:20.250Z,99.99
2017-12-13T09:45:29.947Z,99.96
2017-12-13T09:46:39.662Z,99.29
2017-12-13T09:47:49.391Z,98.44
2017-12-13T09:48:59.361Z,97.68
2017-12-13T09:50:09.360Z,97.87
2017-12-13T09:51:19.328Z,97.59
2017-12-13T09:52:29.026Z,97.3
2017-12-13T09:53:39.034Z,97.78
2017-12-13T09:54:49.051Z,97.78
2017-12-13T09:55:58.220Z,97.59
2017-12-13T09:57:07.918Z,97.87
2017-12-13T09:58:17.630Z,97.87
2017-12-13T09:59:27.342Z,96.45
2017-12-13T10:00:36.834Z,97.11
2017-12-13T10:01:46.282Z,96.73
2017-12-13T10:02:55.723Z,96.83
2017-12-13T10:04:05.631Z,96.03
2017-12-13T10:05:15.595Z,96.03
2017-12-13T10:06:25.042Z,95.26
2017-12-13T10:07:35.022Z,95.84
2017-12-13T10:08:44.791Z,95.17
2017-12-13T10:09:54.765Z,95.5
2017-12-13T10:11:04.714Z,95.88
2017-12-13T10:12:14.148Z,96.73
2017-12-13T10:13:24.120Z,96.55
2017-12-13T10:14:33.563Z,96.36
2017-12-13T10:15:42.736Z,96.92
2017-12-13T10:16:52.427Z,97.49
2017-12-13T10:18:02.392Z,98.16
2017-12-13T10:19:11.574Z,98.16
2017-12-13T10:20:21.536Z,98.25
2017-12-13T10:21:31.483Z,98.2
2017-12-13T10:22:41.432Z,99.99
2017-12-13T10:23:51.285Z,99.24
2017-12-13T10:25:00.810Z,99.62
2017-12-13T10:26:10.529Z,99.15
2017-12-13T10:27:20.224Z,99.15
2017-12-13T10:28:29.657Z,99.24
2017-12-13T10:29:39.620Z,98.2
2017-12-13T10:30:49.590Z,98.63
2017-12-13T10:31:59.282Z,98.06
2017-12-13T10:33:08.996Z,97.78
2017-12-13T10:34:18.949Z,97.59
2017-12-13T10:35:28.647Z,96.92
2017-12-13T10:36:38.357Z,96.64
2017-12-13T10:37:48.319Z,97.49
2017-12-13T10:38:57.748Z,95.88
2017-12-13T10:40:06.939Z,95.98
2017-12-13T10:41:16.379Z,95.74
2017-12-13T10:42:26.345Z,95.36
2017-12-13T10:43:36.045Z,94.7
2017-12-13T10:44:46.005Z,94.23
2017-12-13T10:45:55.433Z,94.04
2017-12-13T10:47:05.400Z,94.32
2017-12-13T10:48:15.387Z,94.42
2017-12-13T10:49:25.339Z,94.32
2017-12-13T10:50:35.029Z,93.18
2017-12-13T10:51:45.000Z,93.94
2017-12-13T10:52:54.714Z,94.32
2017-12-13T10:54:04.162Z,94.7
2017-12-13T10:55:14.122Z,94.89
2017-12-13T10:56:24.048Z,94.98
2017-12-13T10:57:34.004Z,94.32
2017-12-13T10:58:43.740Z,94.51
2017-12-13T10:59:53.844Z,94.98
2017-12-13T11:01:03.373Z,95.26
2017-12-13T11:02:13.417Z,95.79
2017-12-13T11:03:22.916Z,95.17
2017-12-13T11:04:32.877Z,94.98
2017-12-13T11:05:42.571Z,94.98
2017-12-13T11:06:52.010Z,95.55
2017-12-13T11:08:01.967Z,94.32
2017-12-13T11:09:11.930Z,94.32
2017-12-13T11:10:21.898Z,94.32
2017-12-13T11:11:31.869Z,93.75
2017-12-13T11:12:41.855Z,94.32
2017-12-13T11:13:51.288Z,94.42
2017-12-13T11:15:01.236Z,94.7
2017-12-13T11:16:10.935Z,95.17
2017-12-13T11:17:20.636Z,95.12
2017-12-13T11:18:30.345Z,95.5
2017-12-13T11:19:40.328Z,95.74
2017-12-13T11:20:50.293Z,95.07
2017-12-13T11:22:00.273Z,94.98
2017-12-13T11:23:10.013Z,94.6
2017-12-13T11:24:19.961Z,93.27
2017-12-13T11:25:29.401Z,92.42
2017-12-13T11:26:39.113Z,92.9
2017-12-13T11:27:48.868Z,92.38
2017-12-13T11:28:58.675Z,92.09
2017-12-13T11:30:08.781Z,91.52
2017-12-13T11:31:18.304Z,90.86
2017-12-13T11:32:28.321Z,91.42
2017-12-13T11:33:37.865Z,91.52
2017-12-13T11:34:47.687Z,90.95
2017-12-13T11:35:57.776Z,90.48
2017-12-13T11:37:07.828Z,89.43
2017-12-13T11:38:17.640Z,88.72
2017-12-13T11:39:27.400Z,88.91
2017-12-13T11:40:37.353Z,88.91
2017-12-13T11:41:47.088Z,89.1
2017-12-13T11:42:57.083Z,88.2
2017-12-13T11:44:06.810Z,88.62
2017-12-13T11:45:16.827Z,87.96
2017-12-13T11:46:26.848Z,88.15
2017-12-13T11:47:36.854Z,88.81
2017-12-13T11:48:46.565Z,88.87
2017-12-13T11:49:56.546Z,88.77
2017-12-13T11:51:06.511Z,88.68
2017-12-13T11:52:16.227Z,87.82
2017-12-13T11:53:26.225Z,87.96
2017-12-13T11:54:35.679Z,88.24
2017-12-13T11:55:45.399Z,87.68
2017-12-13T11:56:55.140Z,86.82
2017-12-13T11:58:04.886Z,85.97
2017-12-13T11:59:14.948Z,86.63
2017-12-13T12:00:24.651Z,86.72
2017-12-13T12:01:34.633Z,86.54
2017-12-13T12:02:44.343Z,86.63
2017-12-13T12:03:54.070Z,86.72
2017-12-13T12:05:04.051Z,86.72
2017-12-13T12:06:14.021Z,87.87
2017-12-13T12:07:24.022Z,88.1
2017-12-13T12:08:33.725Z,87.96
2017-12-13T12:09:42.930Z,88.43
2017-12-13T12:10:52.885Z,87.11
2017-12-13T12:12:02.586Z,86.82
2017-12-13T12:13:12.277Z,87.68
2017-12-13T12:14:21.965Z,88.01
2017-12-13T12:15:31.935Z,88.96
2017-12-13T12:16:41.897Z,88.39
2017-12-13T12:17:51.901Z,89.62
2017-12-13T12:19:01.631Z,89.53
2017-12-13T12:20:11.616Z,90.67
2017-12-13T12:21:21.326Z,90.57
2017-12-13T12:22:31.287Z,90.29
2017-12-13T12:23:40.725Z,90.67
2017-12-13T12:24:50.681Z,91.52
2017-12-13T12:26:00.388Z,90.48
2017-12-13T12:27:10.401Z,91
2017-12-13T12:28:20.381Z,91.24
2017-12-13T12:29:30.604Z,91.24
2017-12-13T12:30:40.569Z,91.42
2017-12-13T12:31:50.528Z,90.95
2017-12-13T12:33:00.469Z,90.48
2017-12-13T12:34:10.151Z,90.86
2017-12-13T12:35:20.121Z,91.24
2017-12-13T12:36:29.814Z,90.67
2017-12-13T12:37:39.792Z,90.57
2017-12-13T12:38:49.221Z,90.48
2017-12-13T12:39:58.918Z,90.19
2017-12-13T12:41:08.622Z,90.57
2017-12-13T12:42:18.570Z,89.91
2017-12-13T12:43:28.510Z,89.53
2017-12-13T12:44:38.353Z,89.53
2017-12-13T12:45:48.526Z,89.53
2017-12-13T12:46:58.641Z,89.43
2017-12-13T12:48:08.604Z,89.25
2017-12-13T12:49:18.593Z,89.15
2017-12-13T12:50:28.291Z,88.87
2017-12-13T12:51:38.253Z,88.77
2017-12-13T12:52:48.191Z,89.34
2017-12-13T12:53:58.134Z,88.68
2017-12-13T12:55:07.807Z,88.68
2017-12-13T12:56:17.236Z,88.1
2017-12-13T12:57:27.179Z,88.1
2017-12-13T12:58:36.888Z,88.77
2017-12-13T12:59:46.836Z,88.68
2017-12-13T13:00:56.553Z,89.06
2017-12-13T13:02:05.982Z,88.72
2017-12-13T13:03:15.424Z,88.87
2017-12-13T13:04:24.613Z,89.15
2017-12-13T13:05:34.582Z,89.43
2017-12-13T13:06:44.540Z,89.43
2017-12-13T13:07:54.496Z,89.34
2017-12-13T13:09:04.708Z,89.53
2017-12-13T13:10:14.677Z,88.81
2017-12-13T13:11:24.374Z,88.24
2017-12-13T13:12:34.069Z,88.81
2017-12-13T13:13:44.067Z,88.72
2017-12-13T13:14:54.001Z,88.77
2017-12-13T13:16:03.450Z,88.39
2017-12-13T13:17:13.408Z,88.87
2017-12-13T13:18:23.361Z,89.15
2017-12-13T13:19:32.792Z,89.25
2017-12-13T13:20:42.750Z,89.72
2017-12-13T13:21:52.718Z,89.25
2017-12-13T13:23:02.199Z,89.62
2017-12-13T13:24:12.161Z,90
2017-12-13T13:25:22.192Z,90.86
2017-12-13T13:26:31.911Z,90.19
2017-12-13T13:27:41.338Z,91.42
2017-12-13T13:28:51.030Z,91.24
2017-12-13T13:30:00.794Z,91.05
2017-12-13T13:31:10.746Z,91.8
2017-12-13T13:32:20.428Z,91.52
2017-12-13T13:33:30.384Z,91.99
2017-12-13T13:34:40.075Z,92.94
2017-12-13T13:35:49.518Z,92.14
2017-12-13T13:36:59.201Z,93.08
2017-12-13T13:38:09.152Z,93.18
2017-12-13T13:39:19.104Z,93.84
2017-12-13T13:40:29.313Z,94.23
2017-12-13T13:41:39.015Z,94.98
2017-12-13T13:42:48.698Z,95.26
2017-12-13T13:43:58.384Z,95.26
2017-12-13T13:45:07.847Z,94.89
2017-12-13T13:46:17.822Z,94.7
2017-12-13T13:47:27.520Z,95.84
2017-12-13T13:48:37.230Z,96.03
2017-12-13T13:49:46.916Z,95.93
2017-12-13T13:50:56.870Z,95.84
2017-12-13T13:52:06.808Z,95.93
2017-12-13T13:53:16.501Z,96.69
2017-12-13T13:54:26.199Z,96.03
2017-12-13T13:55:36.157Z,96.78
2017-12-13T13:56:45.893Z,96.41
2017-12-13T13:57:55.859Z,96.97
2017-12-13T13:59:05.565Z,97.45
2017-12-13T14:00:15.534Z,96.78
2017-12-13T14:01:25.501Z,96.59
2017-12-13T14:02:35.237Z,97.16
2017-12-13T14:03:44.672Z,96.78
2017-12-13T14:04:54.111Z,96.78
2017-12-13T14:06:04.065Z,96.88
2017-12-13T14:07:13.253Z,96.88
2017-12-13T14:08:23.316Z,96.69
2017-12-13T14:09:33.014Z,96.73
2017-12-13T14:10:42.725Z,96.83
2017-12-13T14:11:52.427Z,96.31
2017-12-13T14:13:01.872Z,96.41
2017-12-13T14:14:11.563Z,96.64
2017-12-13T14:15:21.516Z,96.45
2017-12-13T14:16:31.465Z,96.41
2017-12-13T14:17:41.419Z,96.78
2017-12-13T14:18:50.873Z,95.88
2017-12-13T14:20:00.820Z,96.45
2017-12-13T14:21:10.759Z,96.41
2017-12-13T14:22:20.452Z,96.36
2017-12-13T14:23:30.199Z,96.92
2017-12-13T14:24:40.160Z,96.36
2017-12-13T14:25:49.587Z,96.55
2017-12-13T14:26:59.313Z,96.55
2017-12-13T14:28:09.271Z,96.45
2017-12-13T14:29:19.228Z,96.07
2017-12-13T14:30:28.679Z,95.98
2017-12-13T14:31:38.387Z,96.26
2017-12-13T14:32:48.103Z,96.07
2017-12-13T14:33:57.802Z,95.41
2017-12-13T14:35:07.512Z,95.31
2017-12-13T14:36:16.437Z,95.98
2017-12-13T14:37:26.420Z,96.26
2017-12-13T14:38:36.147Z,95.88
2017-12-13T14:39:46.123Z,96.26
2017-12-13T14:40:56.103Z,96.26
2017-12-13T14:42:06.074Z,95.79
2017-12-13T14:43:15.778Z,95.79
2017-12-13T14:44:25.804Z,95.6
2017-12-13T14:45:35.817Z,95.79
2017-12-13T14:46:45.510Z,95.98
2017-12-13T14:47:55.211Z,96.26
2017-12-13T14:49:05.198Z,95.98
2017-12-13T14:50:15.211Z,95.98
2017-12-13T14:51:24.903Z,95.79
2017-12-13T14:52:34.850Z,95.12
2017-12-13T14:53:44.294Z,95.69
2017-12-13T14:54:53.992Z,95.5
2017-12-13T14:56:03.939Z,94.74
2017-12-13T14:57:13.122Z,95.41
2017-12-13T14:58:22.818Z,95.79
2017-12-13T14:59:32.854Z,95.6